Time,TemperatureF,DewpointF,PressureIn,WindDirection,WindDirectionDegrees,WindSpeedMPH,WindSpeedGustMPH,Humidity,HourlyPrecipIn,Conditions,Clouds,dailyrainin,SoftwareType,DateUTC
2013-01-28 00:03:00,10.0,-99.9,-100.00,West,271,11.0,14.0,-999,-99.99,,,-99.99,,2013-01-28 07:03:00,
2013-01-28 00:11:00,9.0,-99.9,-100.00,West,272,12.0,17.0,-999,-99.99,,,-99.99,,2013-01-28 07:11:00,
2013-01-28 00:22:00,9.0,-99.9,-100.00,West,272,12.0,17.0,-999,-99.99,,,-99.99,,2013-01-28 07:22:00,
2013-01-28 00:32:00,9.0,-99.9,-100.00,West,272,12.0,17.0,-999,-99.99,,,-99.99,,2013-01-28 07:32:00,
2013-01-28 00:42:00,9.0,-99.9,-100.00,West,268,13.0,16.0,-999,-99.99,,,-99.99,,2013-01-28 07:42:00,
2013-01-28 00:52:00,9.0,-99.9,-100.00,West,268,13.0,16.0,-999,-99.99,,,-99.99,,2013-01-28 07:52:00,
2013-01-28 01:01:00,9.0,-99.9,-100.00,West,265,13.0,16.0,-999,-99.99,,,-99.99,,2013-01-28 08:01:00,
2013-01-28 01:11:00,8.0,-99.9,-100.00,West,260,12.0,15.0,-999,-99.99,,,-99.99,,2013-01-28 08:11:00,
2013-01-28 01:22:00,8.0,-99.9,-100.00,West,260,12.0,15.0,-999,-99.99,,,-99.99,,2013-01-28 08:22:00,
2013-01-28 01:32:00,8.0,-99.9,-100.00,West,260,12.0,15.0,-999,-99.99,,,-99.99,,2013-01-28 08:32:00,
2013-01-28 01:42:00,8.0,-99.9,-100.00,West,264,14.0,18.0,-999,-99.99,,,-99.99,,2013-01-28 08:42:00,
2013-01-28 01:53:00,8.0,-99.9,-100.00,West,264,14.0,18.0,-999,-99.99,,,-99.99,,2013-01-28 08:53:00,
2013-01-28 02:02:00,8.0,-99.9,-100.00,West,260,14.0,18.0,-999,-99.99,,,-99.99,,2013-01-28 09:02:00,
2013-01-28 02:12:00,8.0,-99.9,-100.00,West,264,15.0,19.0,-999,-99.99,,,-99.99,,2013-01-28 09:12:00,
2013-01-28 02:22:00,8.0,-99.9,-100.00,West,264,15.0,19.0,-999,-99.99,,,-99.99,,2013-01-28 09:22:00,
2013-01-28 02:33:00,8.0,-99.9,-100.00,West,264,15.0,19.0,-999,-99.99,,,-99.99,,2013-01-28 09:33:00,
2013-01-28 02:42:00,7.0,-99.9,-100.00,West,264,16.0,19.0,-999,-99.99,,,-99.99,,2013-01-28 09:42:00,
2013-01-28 02:52:00,7.0,-99.9,-100.00,West,264,16.0,19.0,-999,-99.99,,,-99.99,,2013-01-28 09:52:00,
2013-01-28 03:02:00,7.0,-99.9,-100.00,West,264,15.0,20.0,-999,-99.99,,,-99.99,,2013-01-28 10:02:00,
2013-01-28 03:11:00,7.0,-99.9,-100.00,West,261,15.0,19.0,-999,-99.99,,,-99.99,,2013-01-28 10:11:00,
2013-01-28 03:21:00,7.0,-99.9,-100.00,West,261,15.0,19.0,-999,-99.99,,,-99.99,,2013-01-28 10:21:00,
2013-01-28 03:32:00,7.0,-99.9,-100.00,West,261,15.0,19.0,-999,-99.99,,,-99.99,,2013-01-28 10:32:00,
2013-01-28 03:42:00,6.0,-99.9,-100.00,West,259,12.0,16.0,-999,-99.99,,,-99.99,,2013-01-28 10:42:00,
2013-01-28 03:52:00,6.0,-99.9,-100.00,West,259,12.0,16.0,-999,-99.99,,,-99.99,,2013-01-28 10:52:00,
2013-01-28 04:03:00,6.0,-99.9,-100.00,West,262,13.0,16.0,-999,-99.99,,,-99.99,,2013-01-28 11:03:00,
2013-01-28 04:11:00,5.0,-99.9,-100.00,West,260,14.0,17.0,-999,-99.99,,,-99.99,,2013-01-28 11:11:00,
2013-01-28 04:22:00,5.0,-99.9,-100.00,West,260,14.0,17.0,-999,-99.99,,,-99.99,,2013-01-28 11:22:00,
2013-01-28 04:33:00,5.0,-99.9,-100.00,West,260,14.0,17.0,-999,-99.99,,,-99.99,,2013-01-28 11:33:00,
2013-01-28 04:42:00,5.0,-99.9,-100.00,WSW,256,13.0,17.0,-999,-99.99,,,-99.99,,2013-01-28 11:42:00,
2013-01-28 04:53:00,5.0,-99.9,-100.00,WSW,256,13.0,17.0,-999,-99.99,,,-99.99,,2013-01-28 11:53:00,
2013-01-28 05:04:00,4.0,-99.9,-100.00,WSW,258,14.0,17.0,-999,-99.99,,,-99.99,,2013-01-28 12:04:00,
2013-01-28 05:12:00,4.0,-99.9,-100.00,WSW,255,12.0,15.0,-999,-99.99,,,-99.99,,2013-01-28 12:12:00,
2013-01-28 05:23:00,4.0,-99.9,-100.00,WSW,255,12.0,15.0,-999,-99.99,,,-99.99,,2013-01-28 12:23:00,
2013-01-28 05:33:00,4.0,-99.9,-100.00,WSW,255,12.0,15.0,-999,-99.99,,,-99.99,,2013-01-28 12:33:00,
2013-01-28 05:43:00,3.0,-99.9,-100.00,WSW,257,12.0,15.0,-999,-99.99,,,-99.99,,2013-01-28 12:43:00,
2013-01-28 05:53:00,3.0,-99.9,-100.00,WSW,257,12.0,15.0,-999,-99.99,,,-99.99,,2013-01-28 12:53:00,
2013-01-28 06:03:00,3.0,-99.9,-100.00,WSW,242,12.0,15.0,-999,-99.99,,,-99.99,,2013-01-28 13:03:00,
2013-01-28 06:12:00,3.0,-99.9,-100.00,WSW,253,12.0,15.0,-999,-99.99,,,-99.99,,2013-01-28 13:12:00,
2013-01-28 06:23:00,3.0,-99.9,-100.00,WSW,253,12.0,15.0,-999,-99.99,,,-99.99,,2013-01-28 13:23:00,
2013-01-28 06:33:00,3.0,-99.9,-100.00,WSW,253,12.0,15.0,-999,-99.99,,,-99.99,,2013-01-28 13:33:00,
2013-01-28 06:43:00,2.0,-99.9,-100.00,WSW,245,13.0,16.0,-999,-99.99,,,-99.99,,2013-01-28 13:43:00,
2013-01-28 06:53:00,2.0,-99.9,-100.00,WSW,245,13.0,16.0,-999,-99.99,,,-99.99,,2013-01-28 13:53:00,
2013-01-28 07:03:00,2.0,-99.9,-100.00,WSW,249,11.0,15.0,-999,-99.99,,,-99.99,,2013-01-28 14:03:00,
2013-01-28 07:12:00,2.0,-99.9,-100.00,West,260,11.0,14.0,-999,-99.99,,,-99.99,,2013-01-28 14:12:00,
2013-01-28 07:23:00,2.0,-99.9,-100.00,West,260,11.0,14.0,-999,-99.99,,,-99.99,,2013-01-28 14:23:00,
2013-01-28 07:33:00,2.0,-99.9,-100.00,West,260,11.0,14.0,-999,-99.99,,,-99.99,,2013-01-28 14:33:00,
2013-01-28 07:43:00,2.0,-99.9,-100.00,West,263,11.0,15.0,-999,-99.99,,,-99.99,,2013-01-28 14:43:00,
2013-01-28 07:53:00,2.0,-99.9,-100.00,West,263,11.0,15.0,-999,-99.99,,,-99.99,,2013-01-28 14:53:00,
2013-01-28 08:03:00,2.0,-99.9,-100.00,West,265,10.0,13.0,-999,-99.99,,,-99.99,,2013-01-28 15:03:00,
2013-01-28 08:13:00,1.0,-99.9,-100.00,West,265,8.0,10.0,-999,-99.99,,,-99.99,,2013-01-28 15:13:00,
2013-01-28 08:24:00,1.0,-99.9,-100.00,West,265,8.0,10.0,-999,-99.99,,,-99.99,,2013-01-28 15:24:00,
2013-01-28 08:34:00,1.0,-99.9,-100.00,West,265,8.0,10.0,-999,-99.99,,,-99.99,,2013-01-28 15:34:00,
2013-01-28 08:43:00,-3.0,-99.9,-100.00,SW,236,8.0,10.0,-999,-99.99,,,-99.99,,2013-01-28 15:43:00,
2013-01-28 08:54:00,-3.0,-99.9,-100.00,SW,236,8.0,10.0,-999,-99.99,,,-99.99,,2013-01-28 15:54:00,
2013-01-28 09:04:00,-6.0,-99.9,-100.00,WSW,242,8.0,10.0,-999,-99.99,,,-99.99,,2013-01-28 16:04:00,
2013-01-28 09:13:00,-7.0,-99.9,-100.00,West,262,7.0,10.0,-999,-99.99,,,-99.99,,2013-01-28 16:13:00,
2013-01-28 09:22:00,-7.0,-99.9,-100.00,West,262,7.0,10.0,-999,-99.99,,,-99.99,,2013-01-28 16:22:00,
2013-01-28 09:43:00,3.0,-99.9,-100.00,West,280,8.0,11.0,-999,-99.99,,,-99.99,,2013-01-28 16:43:00,
2013-01-28 09:53:00,3.0,-99.9,-100.00,West,280,8.0,11.0,-999,-99.99,,,-99.99,,2013-01-28 16:53:00,
2013-01-28 10:02:00,3.0,-99.9,-100.00,WNW,292,7.0,11.0,-999,-99.99,,,-99.99,,2013-01-28 17:02:00,
2013-01-28 10:12:00,-2.0,-99.9,-100.00,WNW,299,6.0,10.0,-999,-99.99,,,-99.99,,2013-01-28 17:12:00,
2013-01-28 10:23:00,-2.0,-99.9,-100.00,WNW,299,6.0,10.0,-999,-99.99,,,-99.99,,2013-01-28 17:23:00,
2013-01-28 10:33:00,-2.0,-99.9,-100.00,WNW,299,6.0,10.0,-999,-99.99,,,-99.99,,2013-01-28 17:33:00,
2013-01-28 10:42:00,-5.0,-99.9,-100.00,WNW,298,7.0,11.0,-999,-99.99,,,-99.99,,2013-01-28 17:42:00,
2013-01-28 10:53:00,-5.0,-99.9,-100.00,WNW,298,7.0,11.0,-999,-99.99,,,-99.99,,2013-01-28 17:53:00,
2013-01-28 11:03:00,-4.0,-99.9,-100.00,WNW,301,7.0,10.0,-999,-99.99,,,-99.99,,2013-01-28 18:03:00,
2013-01-28 11:13:00,-3.0,-99.9,-100.00,NW,305,7.0,13.0,-999,-99.99,,,-99.99,,2013-01-28 18:13:00,
2013-01-28 11:23:00,-3.0,-99.9,-100.00,NW,305,7.0,13.0,-999,-99.99,,,-99.99,,2013-01-28 18:23:00,
2013-01-28 11:43:00,-4.0,-99.9,-100.00,WNW,299,8.0,13.0,-999,-99.99,,,-99.99,,2013-01-28 18:43:00,
2013-01-28 11:53:00,-4.0,-99.9,-100.00,WNW,299,8.0,13.0,-999,-99.99,,,-99.99,,2013-01-28 18:53:00,
2013-01-28 12:03:00,-1.0,-99.9,-100.00,WNW,301,9.0,13.0,-999,-99.99,,,-99.99,,2013-01-28 19:03:00,
2013-01-28 12:13:00,-1.0,-99.9,-100.00,WNW,302,9.0,14.0,-999,-99.99,,,-99.99,,2013-01-28 19:13:00,
2013-01-28 12:23:00,-1.0,-99.9,-100.00,WNW,302,9.0,14.0,-999,-99.99,,,-99.99,,2013-01-28 19:23:00,
2013-01-28 12:43:00,-6.0,-99.9,-100.00,WNW,301,11.0,17.0,-999,-99.99,,,-99.99,,2013-01-28 19:43:00,
2013-01-28 12:53:00,-6.0,-99.9,-100.00,WNW,301,11.0,17.0,-999,-99.99,,,-99.99,,2013-01-28 19:53:00,
2013-01-28 13:03:00,-7.0,-99.9,-100.00,WNW,293,10.0,17.0,-999,-99.99,,,-99.99,,2013-01-28 20:03:00,
2013-01-28 13:12:00,-8.0,-99.9,-100.00,WNW,299,10.0,17.0,-999,-99.99,,,-99.99,,2013-01-28 20:12:00,
2013-01-28 13:43:00,-7.0,-99.9,-100.00,WNW,296,11.0,18.0,-999,-99.99,,,-99.99,,2013-01-28 20:43:00,
2013-01-28 13:53:00,-7.0,-99.9,-100.00,WNW,296,11.0,18.0,-999,-99.99,,,-99.99,,2013-01-28 20:53:00,
2013-01-28 14:04:00,-7.0,-99.9,-100.00,WNW,301,10.0,17.0,-999,-99.99,,,-99.99,,2013-01-28 21:04:00,
2013-01-28 14:12:00,-7.0,-99.9,-100.00,NW,304,10.0,17.0,-999,-99.99,,,-99.99,,2013-01-28 21:12:00,
2013-01-28 14:23:00,-7.0,-99.9,-100.00,NW,304,10.0,17.0,-999,-99.99,,,-99.99,,2013-01-28 21:23:00,
2013-01-28 14:43:00,-6.0,-99.9,-100.00,WNW,299,9.0,15.0,-999,-99.99,,,-99.99,,2013-01-28 21:43:00,
2013-01-28 14:53:00,-6.0,-99.9,-100.00,WNW,299,9.0,15.0,-999,-99.99,,,-99.99,,2013-01-28 21:53:00,
2013-01-28 15:03:00,-5.0,-99.9,-100.00,WNW,299,9.0,15.0,-999,-99.99,,,-99.99,,2013-01-28 22:03:00,
2013-01-28 15:12:00,-6.0,-99.9,-100.00,WNW,303,7.0,14.0,-999,-99.99,,,-99.99,,2013-01-28 22:12:00,
2013-01-28 15:23:00,-6.0,-99.9,-100.00,WNW,303,7.0,14.0,-999,-99.99,,,-99.99,,2013-01-28 22:23:00,
2013-01-28 15:43:00,-8.0,-99.9,-100.00,WNW,302,7.0,12.0,-999,-99.99,,,-99.99,,2013-01-28 22:43:00,
2013-01-28 15:53:00,-8.0,-99.9,-100.00,WNW,302,7.0,12.0,-999,-99.99,,,-99.99,,2013-01-28 22:53:00,
2013-01-28 16:03:00,1.0,-99.9,-100.00,WNW,298,10.0,16.0,-999,-99.99,,,-99.99,,2013-01-28 23:03:00,
2013-01-28 16:12:00,-1.0,-99.9,-100.00,WNW,296,9.0,15.0,-999,-99.99,,,-99.99,,2013-01-28 23:12:00,
2013-01-28 16:22:00,-1.0,-99.9,-100.00,WNW,296,9.0,15.0,-999,-99.99,,,-99.99,,2013-01-28 23:22:00,
2013-01-28 16:42:00,-9.0,-99.9,-100.00,WNW,285,9.0,19.0,-999,-99.99,,,-99.99,,2013-01-28 23:42:00,
2013-01-28 16:53:00,-9.0,-99.9,-100.00,WNW,285,9.0,19.0,-999,-99.99,,,-99.99,,2013-01-28 23:53:00,
2013-01-28 17:03:00,-4.0,-99.9,-100.00,WNW,293,8.0,16.0,-999,-99.99,,,-99.99,,2013-01-29 00:03:00,
2013-01-28 17:13:00,-2.0,-99.9,-100.00,WNW,295,9.0,16.0,-999,-99.99,,,-99.99,,2013-01-29 00:13:00,
2013-01-28 17:22:00,-2.0,-99.9,-100.00,WNW,295,9.0,16.0,-999,-99.99,,,-99.99,,2013-01-29 00:22:00,
2013-01-28 17:33:00,-2.0,-99.9,-100.00,WNW,295,9.0,16.0,-999,-99.99,,,-99.99,,2013-01-29 00:33:00,
2013-01-28 17:42:00,1.0,-99.9,-100.00,WNW,284,12.0,19.0,-999,-99.99,,,-99.99,,2013-01-29 00:42:00,
2013-01-28 17:52:00,1.0,-99.9,-100.00,WNW,284,12.0,19.0,-999,-99.99,,,-99.99,,2013-01-29 00:52:00,
2013-01-28 18:30:00,1.0,-99.9,-100.00,NW,304,15.0,21.0,-999,-99.99,,,-99.99,,2013-01-29 01:30:00,
2013-01-28 18:42:00,1.0,-99.9,-100.00,WNW,300,13.0,18.0,-999,-99.99,,,-99.99,,2013-01-29 01:42:00,
2013-01-28 18:53:00,1.0,-99.9,-100.00,WNW,300,13.0,18.0,-999,-99.99,,,-99.99,,2013-01-29 01:53:00,
2013-01-28 19:02:00,1.0,-99.9,-100.00,NW,304,15.0,21.0,-999,-99.99,,,-99.99,,2013-01-29 02:02:00,
2013-01-28 19:12:00,1.0,-99.9,-100.00,NW,304,15.0,21.0,-999,-99.99,,,-99.99,,2013-01-29 02:12:00,
2013-01-28 19:22:00,1.0,-99.9,-100.00,NW,304,15.0,21.0,-999,-99.99,,,-99.99,,2013-01-29 02:22:00,
2013-01-28 19:42:00,1.0,-99.9,-100.00,WNW,301,14.0,19.0,-999,-99.99,,,-99.99,,2013-01-29 02:42:00,
2013-01-28 19:53:00,1.0,-99.9,-100.00,WNW,301,14.0,19.0,-999,-99.99,,,-99.99,,2013-01-29 02:53:00,
2013-01-28 20:03:00,1.0,-99.9,-100.00,WNW,300,12.0,18.0,-999,-99.99,,,-99.99,,2013-01-29 03:03:00,
2013-01-28 20:12:00,1.0,-99.9,-100.00,WNW,303,13.0,18.0,-999,-99.99,,,-99.99,,2013-01-29 03:12:00,
2013-01-28 20:22:00,1.0,-99.9,-100.00,WNW,303,13.0,18.0,-999,-99.99,,,-99.99,,2013-01-29 03:22:00,
2013-01-28 20:32:00,1.0,-99.9,-100.00,WNW,303,13.0,18.0,-999,-99.99,,,-99.99,,2013-01-29 03:32:00,
2013-01-28 20:42:00,1.0,-99.9,-100.00,NW,308,14.0,17.0,-999,-99.99,,,-99.99,,2013-01-29 03:42:00,
2013-01-28 20:53:00,1.0,-99.9,-100.00,NW,308,14.0,17.0,-999,-99.99,,,-99.99,,2013-01-29 03:53:00,
2013-01-28 21:03:00,1.0,-99.9,-100.00,WNW,296,12.0,17.0,-999,-99.99,,,-99.99,,2013-01-29 04:03:00,
2013-01-28 21:12:00,1.0,-99.9,-100.00,WNW,295,10.0,14.0,-999,-99.99,,,-99.99,,2013-01-29 04:12:00,
2013-01-28 21:22:00,1.0,-99.9,-100.00,WNW,295,10.0,14.0,-999,-99.99,,,-99.99,,2013-01-29 04:22:00,
2013-01-28 21:32:00,1.0,-99.9,-100.00,WNW,295,10.0,14.0,-999,-99.99,,,-99.99,,2013-01-29 04:32:00,
2013-01-28 22:43:00,1.0,-99.9,-100.00,West,281,11.0,20.0,-999,-99.99,,,-99.99,,2013-01-29 05:43:00,
2013-01-28 22:52:00,1.0,-99.9,-100.00,West,281,11.0,20.0,-999,-99.99,,,-99.99,,2013-01-29 05:52:00,
2013-01-28 23:02:00,1.0,-99.9,-100.00,West,281,11.0,20.0,-999,-99.99,,,-99.99,,2013-01-29 06:02:00,
2013-01-28 23:11:00,1.0,-99.9,-100.00,West,281,9.0,15.0,-999,-99.99,,,-99.99,,2013-01-29 06:11:00,
2013-01-28 23:22:00,1.0,-99.9,-100.00,West,281,9.0,15.0,-999,-99.99,,,-99.99,,2013-01-29 06:22:00,
2013-01-28 23:32:00,1.0,-99.9,-100.00,West,281,9.0,15.0,-999,-99.99,,,-99.99,,2013-01-29 06:32:00,
2013-01-28 23:42:00,1.0,-99.9,-100.00,WNW,288,8.0,14.0,-999,-99.99,,,-99.99,,2013-01-29 06:42:00,
2013-01-28 23:52:00,1.0,-99.9,-100.00,WNW,288,8.0,14.0,-999,-99.99,,,-99.99,,2013-01-29 06:52:00,